APL Coral — WDF6832 — position and weather

sailwx.info

Track history (hours):
 
Tides and Currents Weather Stations Pressure Air Temp Water Temp Dewpoint Dewpoint Depression Visibility Wind Speed Wind Dir Waves Ship Positions

APL Coral

Owner: APL Maritime Ltd., Bethesda, MD. More information available from US FCC via Universal Licensing System and Coast Guard Vessel Documentation Center.

Last reported at 2016-Dec-09 08:05 UTC. Time now 2016-Dec-09 11:47 UTC.
Position N 01°56' E 102°18'.

Length 274 m; draft 12.9 m.

Type: Cargo ship. MMSI: 367478280.

Date/timePositionNaut miles runAvg speedWind from/ knotsBaromVisibWave heightAir tempDewpointWater temp
2016-Dec-09 08:05N 01°56' E 102°18'1018.7
2016-Dec-09 07:33N 01°50' E 102°27'2018.8
2016-Dec-09 06:30N 01°42' E 102°45'6416.1
2016-Dec-09 02:33N 01°13' E 103°41'6 6.0
2016-Dec-09 01:33N 01°16' E 103°47'0 0.0
2016-Dec-09 00:33N 01°16' E 103°47'0 0.0
2016-Dec-08 23:32N 01°16' E 103°47'0 0.0
2016-Dec-08 22:33N 01°16' E 103°47'0 0.0
2016-Dec-08 21:33N 01°16' E 103°47'0 0.0
2016-Dec-08 16:04N 01°16' E 103°47'0 0.0
2016-Dec-08 15:31N 01°16' E 103°47'0 0.0
2016-Dec-08 14:33N 01°16' E 103°47'0 0.0
2016-Dec-08 13:34N 01°16' E 103°47'0 0.0
2016-Dec-08 12:32N 01°16' E 103°47'1 0.5
2016-Dec-08 11:33N 01°16' E 103°47'3 3.3
2016-Dec-08 10:33N 01°13' E 103°48'9 8.3
2016-Dec-08 09:24N 01°15' E 103°57'5 6.4
2016-Dec-08 08:33N 01°17' E 104°03'92118.2
2016-Dec-06 06:00N 14°00' E 112°42'50517.7 050 / 171013.0 5.4 28.025.229.0
2016-Dec-05 01:28N 22°19' E 114°05'1010.8
2016-Dec-05 00:30N 22°22' E 113°54'6 6.5
2016-Dec-04 23:33N 22°28' E 113°52'0 0.1
2016-Dec-04 22:33N 22°28' E 113°52'0 0.1
2016-Dec-04 21:33N 22°28' E 113°52'0 0.1
2016-Dec-04 20:33N 22°28' E 113°52'0 0.0
2016-Dec-04 18:26N 22°28' E 113°52'0 0.0
2016-Dec-04 17:04N 22°28' E 113°52'0 0.0
2016-Dec-04 15:13N 22°28' E 113°52'0 0.0
2016-Dec-04 14:31N 22°28' E 113°52'0 0.0
2016-Dec-04 13:33N 22°28' E 113°52'3 3.1
2016-Dec-04 12:33N 22°25' E 113°53'12 8.2
2016-Dec-04 11:03N 22°20' E 114°05'24715.7
2016-Dec-03 19:18N 23°37' E 118°20'40817.6
2016-Dec-02 20:10N 29°17' E 122°31'1819.2
2016-Dec-02 19:15N 29°35' E 122°31'1013.7
2016-Dec-02 18:33N 29°43' E 122°25'1312.5
2016-Dec-02 17:34N 29°50' E 122°13'1211.9
2016-Dec-02 16:33N 29°56' E 122°01'9 9.3
2016-Dec-02 15:33N 29°57' E 121°50'0 0.2
2016-Dec-02 14:33N 29°57' E 121°50'0 0.0
2016-Dec-02 13:33N 29°57' E 121°50'0 0.0
2016-Dec-02 12:33N 29°57' E 121°50'0 0.0
2016-Dec-02 11:33N 29°57' E 121°50'0 0.0
2016-Dec-02 10:33N 29°57' E 121°50'0 0.0
2016-Dec-02 09:33N 29°57' E 121°50'0 0.0
2016-Dec-02 08:32N 29°57' E 121°50'0 0.0
2016-Dec-02 07:33N 29°57' E 121°50'0 0.0
2016-Dec-02 06:28N 29°57' E 121°50'1 0.9
2016-Dec-02 05:32N 29°58' E 121°50'1312.0
2016-Dec-02 04:29N 29°56' E 122°05'8 8.3
2016-Dec-02 03:32N 29°52' E 122°12'9 8.8
2016-Dec-02 02:33N 29°45' E 122°19'8 7.7
2016-Dec-02 01:30N 29°44' E 122°28'0 0.1
2016-Dec-02 00:26N 29°44' E 122°28'0 0.1
2016-Dec-01 22:24N 29°44' E 122°28'0 0.1
2016-Dec-01 21:33N 29°44' E 122°28'0 0.1
2016-Dec-01 20:32N 29°44' E 122°28'0 0.0
2016-Dec-01 19:32N 29°44' E 122°28'0 0.1
2016-Dec-01 18:33N 29°44' E 122°28'1 0.6
2016-Dec-01 17:33N 29°44' E 122°29'95 9.4
2016-Dec-01 07:25N 31°15' E 121°57'1213.8
2016-Dec-01 06:32N 31°19' E 121°43'8 6.8
2016-Dec-01 05:22N 31°22' E 121°35'0 0.0
2016-Dec-01 04:33N 31°22' E 121°35'0 0.0
2016-Dec-01 03:33N 31°22' E 121°35'0 0.0
2016-Dec-01 02:33N 31°22' E 121°35'0 0.0
2016-Dec-01 01:33N 31°22' E 121°35'0 0.0
2016-Dec-01 00:33N 31°22' E 121°35'0 0.0
2016-Nov-30 23:33N 31°22' E 121°35'0 0.0
2016-Nov-30 22:33N 31°22' E 121°35'0 0.0
2016-Nov-30 21:33N 31°22' E 121°35'0 0.0
2016-Nov-30 20:33N 31°22' E 121°35'0 0.0
2016-Nov-30 19:33N 31°22' E 121°35'0 0.0
2016-Nov-30 18:33N 31°22' E 121°35'0 0.2
2016-Nov-30 17:33N 31°23' E 121°35'5 4.6
2016-Nov-30 16:33N 31°21' E 121°40'9 9.5
2016-Nov-30 15:33N 31°17' E 121°50'  
Track history (hours):
 
Tides and Currents Weather Stations Pressure Air Temp Water Temp Dewpoint Dewpoint Depression Visibility Wind Speed Wind Dir Waves Ship Positions

APL Coral

Owner: APL Maritime Ltd., Bethesda, MD. More information available from US FCC via Universal Licensing System and Coast Guard Vessel Documentation Center.

Last reported at 2016-Dec-09 08:05 UTC. Time now 2016-Dec-09 11:47 UTC.
Position N 01°56' E 102°18'.

Length 274 m; draft 12.9 m.

Type: Cargo ship. MMSI: 367478280.

Date/timePositionNaut miles runAvg speedWind from/ knotsBaromVisibWave heightAir tempDewpointWater temp
2016-Dec-09 08:05N 01°56' E 102°18'1018.7
2016-Dec-09 07:33N 01°50' E 102°27'2018.8
2016-Dec-09 06:30N 01°42' E 102°45'6416.1
2016-Dec-09 02:33N 01°13' E 103°41'6 6.0
2016-Dec-09 01:33N 01°16' E 103°47'0 0.0
2016-Dec-09 00:33N 01°16' E 103°47'0 0.0
2016-Dec-08 23:32N 01°16' E 103°47'0 0.0
2016-Dec-08 22:33N 01°16' E 103°47'0 0.0
2016-Dec-08 21:33N 01°16' E 103°47'0 0.0
2016-Dec-08 16:04N 01°16' E 103°47'0 0.0
2016-Dec-08 15:31N 01°16' E 103°47'0 0.0
2016-Dec-08 14:33N 01°16' E 103°47'0 0.0
2016-Dec-08 13:34N 01°16' E 103°47'0 0.0
2016-Dec-08 12:32N 01°16' E 103°47'1 0.5
2016-Dec-08 11:33N 01°16' E 103°47'3 3.3
2016-Dec-08 10:33N 01°13' E 103°48'9 8.3
2016-Dec-08 09:24N 01°15' E 103°57'5 6.4
2016-Dec-08 08:33N 01°17' E 104°03'92118.2
2016-Dec-06 06:00N 14°00' E 112°42'50517.7 050 / 171013.0 5.4 28.025.229.0
2016-Dec-05 01:28N 22°19' E 114°05'1010.8
2016-Dec-05 00:30N 22°22' E 113°54'6 6.5
2016-Dec-04 23:33N 22°28' E 113°52'0 0.1
2016-Dec-04 22:33N 22°28' E 113°52'0 0.1
2016-Dec-04 21:33N 22°28' E 113°52'0 0.1
2016-Dec-04 20:33N 22°28' E 113°52'0 0.0
2016-Dec-04 18:26N 22°28' E 113°52'0 0.0
2016-Dec-04 17:04N 22°28' E 113°52'0 0.0
2016-Dec-04 15:13N 22°28' E 113°52'0 0.0
2016-Dec-04 14:31N 22°28' E 113°52'0 0.0
2016-Dec-04 13:33N 22°28' E 113°52'3 3.1
2016-Dec-04 12:33N 22°25' E 113°53'12 8.2
2016-Dec-04 11:03N 22°20' E 114°05'24715.7
2016-Dec-03 19:18N 23°37' E 118°20'40817.6
2016-Dec-02 20:10N 29°17' E 122°31'1819.2
2016-Dec-02 19:15N 29°35' E 122°31'1013.7
2016-Dec-02 18:33N 29°43' E 122°25'1312.5
2016-Dec-02 17:34N 29°50' E 122°13'1211.9
2016-Dec-02 16:33N 29°56' E 122°01'9 9.3
2016-Dec-02 15:33N 29°57' E 121°50'0 0.2
2016-Dec-02 14:33N 29°57' E 121°50'0 0.0
2016-Dec-02 13:33N 29°57' E 121°50'0 0.0
2016-Dec-02 12:33N 29°57' E 121°50'0 0.0
2016-Dec-02 11:33N 29°57' E 121°50'0 0.0
2016-Dec-02 10:33N 29°57' E 121°50'0 0.0
2016-Dec-02 09:33N 29°57' E 121°50'0 0.0
2016-Dec-02 08:32N 29°57' E 121°50'0 0.0
2016-Dec-02 07:33N 29°57' E 121°50'0 0.0
2016-Dec-02 06:28N 29°57' E 121°50'1 0.9
2016-Dec-02 05:32N 29°58' E 121°50'1312.0
2016-Dec-02 04:29N 29°56' E 122°05'8 8.3
2016-Dec-02 03:32N 29°52' E 122°12'9 8.8
2016-Dec-02 02:33N 29°45' E 122°19'8 7.7
2016-Dec-02 01:30N 29°44' E 122°28'0 0.1
2016-Dec-02 00:26N 29°44' E 122°28'0 0.1
2016-Dec-01 22:24N 29°44' E 122°28'0 0.1
2016-Dec-01 21:33N 29°44' E 122°28'0 0.1
2016-Dec-01 20:32N 29°44' E 122°28'0 0.0
2016-Dec-01 19:32N 29°44' E 122°28'0 0.1
2016-Dec-01 18:33N 29°44' E 122°28'1 0.6
2016-Dec-01 17:33N 29°44' E 122°29'95 9.4
2016-Dec-01 07:25N 31°15' E 121°57'1213.8
2016-Dec-01 06:32N 31°19' E 121°43'8 6.8
2016-Dec-01 05:22N 31°22' E 121°35'0 0.0
2016-Dec-01 04:33N 31°22' E 121°35'0 0.0
2016-Dec-01 03:33N 31°22' E 121°35'0 0.0
2016-Dec-01 02:33N 31°22' E 121°35'0 0.0
2016-Dec-01 01:33N 31°22' E 121°35'0 0.0
2016-Dec-01 00:33N 31°22' E 121°35'0 0.0
2016-Nov-30 23:33N 31°22' E 121°35'0 0.0
2016-Nov-30 22:33N 31°22' E 121°35'0 0.0
2016-Nov-30 21:33N 31°22' E 121°35'0 0.0
2016-Nov-30 20:33N 31°22' E 121°35'0 0.0
2016-Nov-30 19:33N 31°22' E 121°35'0 0.0
2016-Nov-30 18:33N 31°22' E 121°35'0 0.2
2016-Nov-30 17:33N 31°23' E 121°35'5 4.6
2016-Nov-30 16:33N 31°21' E 121°40'9 9.5
2016-Nov-30 15:33N 31°17' E 121°50'  

Dump ship's entire track history